Time;durP1;ratioP1;P1;durP2;ratioP2;P2;SDS_P1;SDS_P2;PMS_P1;PMS_P2;Temp;Humidity;BMP_temperature;BMP_pressure;BME280_temperature;BME280_humidity;BME280_pressure;Samples;Min_cycle;Max_cycle;Signal;HPM_P1;HPM_P2
2023/05/23 00:00:43;;;;;;;;;;;14.10;99.90;;;;;;5028718;28;19917;-69
2023/05/23 00:03:09;;;;;;;;;;;14.20;99.90;;;;;;5019515;28;19917;-69
2023/05/23 00:05:35;;;;;;;;;;;14.20;99.90;;;;;;5027956;28;20037;-69
2023/05/23 00:08:00;;;;;;;;;;;14.20;99.90;;;;;;5025122;28;21379;-69
2023/05/23 00:10:26;;;;;;;;;;;14.20;99.90;;;;;;5058691;28;19916;-70
2023/05/23 00:12:52;;;;;;;;;;;14.20;99.90;;;;;;5026040;28;19924;-69
2023/05/23 00:15:21;;;;;;;;;;;14.20;99.90;;;;;;5026398;28;20253;-69
2023/05/23 00:17:47;;;;;;;;;;;14.30;99.90;;;;;;5044965;28;20160;-70
2023/05/23 00:20:12;;;;;;;;;;;14.20;99.90;;;;;;5026714;28;19917;-68
2023/05/23 00:22:41;;;;;;;;;;;14.20;99.90;;;;;;5041076;28;19920;-68
2023/05/23 00:25:10;;;;;;;;;;;14.20;99.90;;;;;;5025561;28;21276;-68
2023/05/23 00:27:35;;;;;;;;;;;14.20;99.90;;;;;;5025437;28;20456;-68
2023/05/23 00:30:01;;;;;;;;;;;14.10;99.90;;;;;;5023201;28;19916;-69
2023/05/23 00:32:27;;;;;;;;;;;14.10;99.90;;;;;;5027814;28;19920;-68
2023/05/23 00:34:53;;;;;;;;;;;14.10;99.90;;;;;;5027991;28;19923;-69
2023/05/23 00:37:21;;;;;;;;;;;14.10;99.90;;;;;;5041116;28;19956;-68
2023/05/23 00:39:47;;;;;;;;;;;14.10;99.90;;;;;;5060893;28;19920;-69
2023/05/23 00:42:12;;;;;;;;;;;14.10;99.90;;;;;;5022400;28;19939;-69
2023/05/23 00:44:41;;;;;;;;;;;14.10;99.90;;;;;;5067442;22;20011;-66
2023/05/23 00:47:10;;;;;;;;;;;14.10;99.90;;;;;;5049104;28;19927;-67
2023/05/23 00:49:35;;;;;;;;;;;14.10;99.90;;;;;;5068485;28;20035;-67
2023/05/23 00:52:02;;;;;;;;;;;14.00;99.90;;;;;;5051379;28;20293;-67
2023/05/23 00:54:30;;;;;;;;;;;14.00;99.90;;;;;;5073782;28;19930;-66
2023/05/23 00:56:55;;;;;;;;;;;14.00;99.90;;;;;;5051685;28;19916;-67
2023/05/23 00:59:25;;;;;;;;;;;13.90;99.90;;;;;;5064334;28;19980;-66
2023/05/23 01:01:51;;;;;;;;;;;13.90;99.90;;;;;;5047351;28;19931;-66
2023/05/23 01:04:20;;;;;;;;;;;13.90;99.90;;;;;;5053180;28;20306;-67
2023/05/23 01:06:47;;;;;;;;;;;13.90;99.90;;;;;;5067705;28;20317;-67
2023/05/23 01:09:14;;;;;;;;;;;13.80;99.90;;;;;;5071439;28;19927;-67
2023/05/23 01:11:55;;;;;;;;;;;13.80;99.90;;;;;;5065455;28;19978;-66
2023/05/23 01:14:22;;;;;;;;;;;13.70;99.90;;;;;;5054196;28;19931;-66
2023/05/23 01:16:54;;;;;;;;;;;13.70;99.90;;;;;;5073549;28;19964;-66
2023/05/23 01:19:26;;;;;;;;;;;13.60;99.90;;;;;;5064892;28;20251;-66
2023/05/23 01:21:54;;;;;;;;;;;13.60;99.90;;;;;;5064234;28;20450;-67
2023/05/23 01:24:19;;;;;;;;;;;13.60;99.90;;;;;;5051488;28;19917;-67
2023/05/23 01:27:04;;;;;;;;;;;13.60;99.90;;;;;;5066836;28;19997;-67
2023/05/23 01:29:35;;;;;;;;;;;13.60;99.90;;;;;;5060714;28;20267;-66
2023/05/23 01:32:01;;;;;;;;;;;13.60;99.90;;;;;;5064987;28;20281;-67
2023/05/23 01:34:27;;;;;;;;;;;13.60;99.90;;;;;;5066408;28;19920;-67
2023/05/23 01:36:56;;;;;;;;;;;13.60;99.90;;;;;;5065819;28;20001;-67
2023/05/23 01:39:22;;;;;;;;;;;13.60;99.90;;;;;;5065476;28;19916;-67
2023/05/23 01:41:49;;;;;;;;;;;13.50;99.90;;;;;;5066915;28;19939;-70
2023/05/23 01:44:15;;;;;;;;;;;13.50;99.90;;;;;;5058310;28;19942;-69
2023/05/23 01:46:43;;;;;;;;;;;13.50;99.90;;;;;;5064563;28;20284;-69
2023/05/23 01:49:10;;;;;;;;;;;13.50;99.90;;;;;;5066149;28;20018;-69
2023/05/23 01:51:36;;;;;;;;;;;13.50;99.90;;;;;;5066049;28;19916;-69
2023/05/23 01:54:02;;;;;;;;;;;13.50;99.90;;;;;;5066524;28;20293;-69
2023/05/23 01:56:27;;;;;;;;;;;13.50;99.90;;;;;;5059860;28;20518;-69
2023/05/23 01:58:53;;;;;;;;;;;13.50;99.90;;;;;;5064635;28;19920;-69
2023/05/23 02:01:19;;;;;;;;;;;13.40;99.90;;;;;;5061540;28;20010;-69
2023/05/23 02:03:47;;;;;;;;;;;13.40;99.90;;;;;;5061209;28;19916;-66
2023/05/23 02:06:12;;;;;;;;;;;13.30;99.90;;;;;;5047206;28;19947;-66
2023/05/23 02:08:38;;;;;;;;;;;13.30;99.90;;;;;;5047546;28;20354;-67
2023/05/23 02:11:03;;;;;;;;;;;13.30;99.90;;;;;;5045750;28;19916;-67
2023/05/23 02:13:29;;;;;;;;;;;13.30;99.90;;;;;;5059640;28;19988;-67
2023/05/23 02:15:55;;;;;;;;;;;13.30;99.90;;;;;;5048552;28;19924;-67
2023/05/23 02:18:20;;;;;;;;;;;13.30;99.90;;;;;;5061338;28;19916;-66
2023/05/23 02:20:46;;;;;;;;;;;13.30;99.90;;;;;;5067205;28;19917;-67
2023/05/23 02:23:11;;;;;;;;;;;13.40;99.90;;;;;;5064556;28;20460;-67
2023/05/23 02:25:37;;;;;;;;;;;13.40;99.90;;;;;;5069829;28;19923;-67
2023/05/23 02:28:03;;;;;;;;;;;13.40;99.90;;;;;;5034337;28;19934;-67
2023/05/23 02:30:28;;;;;;;;;;;13.40;99.90;;;;;;5063923;28;19927;-66
2023/05/23 02:32:54;;;;;;;;;;;13.40;99.90;;;;;;5068344;28;20007;-67
2023/05/23 02:35:19;;;;;;;;;;;13.40;99.90;;;;;;5063058;28;19916;-67
2023/05/23 02:37:45;;;;;;;;;;;13.40;99.90;;;;;;5062955;28;19951;-67
2023/05/23 02:40:11;;;;;;;;;;;13.30;99.90;;;;;;5054759;28;19924;-68
2023/05/23 02:42:36;;;;;;;;;;;13.30;99.90;;;;;;5052911;28;20392;-67
2023/05/23 02:45:04;;;;;;;;;;;13.30;99.90;;;;;;5046363;28;19916;-67
2023/05/23 02:47:30;;;;;;;;;;;13.30;99.90;;;;;;5063890;28;19924;-67
2023/05/23 02:49:56;;;;;;;;;;;13.30;99.90;;;;;;5069375;28;19931;-67
2023/05/23 02:52:21;;;;;;;;;;;13.20;99.90;;;;;;5023399;28;19939;-67
2023/05/23 02:54:47;;;;;;;;;;;13.20;99.90;;;;;;5063923;28;20043;-67
2023/05/23 02:57:15;;;;;;;;;;;13.20;99.90;;;;;;5063835;28;19916;-67
2023/05/23 02:59:40;;;;;;;;;;;13.10;99.90;;;;;;5066914;28;19996;-67
2023/05/23 03:02:06;;;;;;;;;;;13.20;99.90;;;;;;5059175;28;19924;-67
2023/05/23 03:04:31;;;;;;;;;;;13.20;99.90;;;;;;5063811;28;19989;-67
2023/05/23 03:06:58;;;;;;;;;;;13.20;99.90;;;;;;5047484;28;19981;-67
2023/05/23 03:09:26;;;;;;;;;;;13.20;99.90;;;;;;5046063;28;19920;-67
2023/05/23 03:11:52;;;;;;;;;;;13.20;99.90;;;;;;5051424;28;20010;-67
2023/05/23 03:14:18;;;;;;;;;;;13.10;99.90;;;;;;5048137;28;20126;-67
2023/05/23 03:16:44;;;;;;;;;;;13.10;99.90;;;;;;5041456;28;19920;-67
2023/05/23 03:19:09;;;;;;;;;;;13.10;99.90;;;;;;5062615;28;19931;-67
2023/05/23 03:21:35;;;;;;;;;;;13.10;99.90;;;;;;5054386;28;19916;-67
2023/05/23 03:24:03;;;;;;;;;;;13.10;99.90;;;;;;5050068;28;19920;-67
2023/05/23 03:26:28;;;;;;;;;;;13.10;99.90;;;;;;5077106;28;19920;-67
2023/05/23 03:28:54;;;;;;;;;;;13.10;99.90;;;;;;5068881;28;19951;-67
2023/05/23 03:31:20;;;;;;;;;;;13.00;99.90;;;;;;5052965;28;19931;-67
2023/05/23 03:33:45;;;;;;;;;;;13.00;99.90;;;;;;5063144;28;19916;-67
2023/05/23 03:36:11;;;;;;;;;;;13.00;99.90;;;;;;5046443;28;20392;-67
2023/05/23 03:38:37;;;;;;;;;;;13.00;99.90;;;;;;5069214;28;19928;-67
2023/05/23 03:41:02;;;;;;;;;;;13.00;99.90;;;;;;5072714;28;19939;-67
2023/05/23 03:43:27;;;;;;;;;;;13.00;99.90;;;;;;5047202;28;19920;-67
2023/05/23 03:45:53;;;;;;;;;;;13.00;99.90;;;;;;5046175;28;19999;-68
2023/05/23 03:48:19;;;;;;;;;;;13.00;99.90;;;;;;5072119;28;20436;-67
2023/05/23 03:50:45;;;;;;;;;;;13.00;99.90;;;;;;5076624;28;20318;-68
2023/05/23 03:53:11;;;;;;;;;;;13.00;99.90;;;;;;5083508;28;20188;-67
2023/05/23 03:55:37;;;;;;;;;;;12.90;99.90;;;;;;5053229;28;19924;-67
2023/05/23 03:58:03;;;;;;;;;;;12.90;99.90;;;;;;5078181;28;20395;-67
2023/05/23 04:00:31;;;;;;;;;;;12.90;99.90;;;;;;5063809;28;20000;-67
2023/05/23 04:02:57;;;;;;;;;;;12.80;99.90;;;;;;5041681;28;20404;-67
2023/05/23 04:05:22;;;;;;;;;;;12.80;99.90;;;;;;5070958;28;19951;-67
2023/05/23 04:07:48;;;;;;;;;;;12.80;99.90;;;;;;5065109;28;19936;-67
2023/05/23 04:10:17;;;;;;;;;;;12.80;99.90;;;;;;5078135;28;19931;-67
2023/05/23 04:12:42;;;;;;;;;;;12.70;99.90;;;;;;5061169;28;20009;-67
2023/05/23 04:15:08;;;;;;;;;;;12.70;99.90;;;;;;5052073;28;20365;-67
2023/05/23 04:17:34;;;;;;;;;;;12.70;99.90;;;;;;5049510;28;19916;-67
2023/05/23 04:20:00;;;;;;;;;;;12.80;99.90;;;;;;5056672;28;20322;-68
2023/05/23 04:22:25;;;;;;;;;;;12.70;99.90;;;;;;5067527;28;20401;-67
2023/05/23 04:24:51;;;;;;;;;;;12.70;99.90;;;;;;5066177;28;19936;-67
2023/05/23 04:27:16;;;;;;;;;;;12.70;99.90;;;;;;5082033;28;19935;-67
2023/05/23 04:29:43;;;;;;;;;;;12.60;99.90;;;;;;5078050;28;20409;-68
2023/05/23 04:32:08;;;;;;;;;;;12.60;99.90;;;;;;5069306;28;20003;-69
2023/05/23 04:34:34;;;;;;;;;;;12.60;99.90;;;;;;5052240;28;20352;-67
2023/05/23 04:37:02;;;;;;;;;;;12.50;99.90;;;;;;5074328;28;19920;-67
2023/05/23 04:39:28;;;;;;;;;;;12.50;99.90;;;;;;5051496;28;19927;-67
2023/05/23 04:41:55;;;;;;;;;;;12.40;99.90;;;;;;5052819;28;20396;-67
2023/05/23 04:44:25;;;;;;;;;;;12.40;99.90;;;;;;5068627;28;20286;-67
2023/05/23 04:46:51;;;;;;;;;;;12.40;99.90;;;;;;5051967;28;20454;-67
2023/05/23 04:49:16;;;;;;;;;;;12.30;99.90;;;;;;5072411;28;19967;-67
2023/05/23 04:51:42;;;;;;;;;;;12.30;99.90;;;;;;5079357;28;19923;-67
2023/05/23 04:54:08;;;;;;;;;;;12.30;99.90;;;;;;5043506;28;20018;-68
2023/05/23 04:56:33;;;;;;;;;;;12.30;99.90;;;;;;5037457;28;19923;-67
2023/05/23 04:58:59;;;;;;;;;;;12.30;99.90;;;;;;5080501;28;19917;-67
2023/05/23 05:01:24;;;;;;;;;;;12.30;99.90;;;;;;5065010;28;20025;-67
2023/05/23 05:03:50;;;;;;;;;;;12.20;99.90;;;;;;5055877;28;19920;-67
2023/05/23 05:06:17;;;;;;;;;;;12.20;99.90;;;;;;5050614;28;19982;-66
2023/05/23 05:08:42;;;;;;;;;;;12.30;99.90;;;;;;5053818;28;19931;-66
2023/05/23 05:11:08;;;;;;;;;;;12.20;99.90;;;;;;5073459;28;20341;-67
2023/05/23 05:13:34;;;;;;;;;;;12.10;99.90;;;;;;5049680;28;19916;-70
2023/05/23 05:16:00;;;;;;;;;;;12.10;99.90;;;;;;5069224;28;19921;-69
2023/05/23 05:18:26;;;;;;;;;;;12.10;99.90;;;;;;5051987;28;20018;-68
2023/05/23 05:20:51;;;;;;;;;;;12.10;99.90;;;;;;5051456;28;19985;-72
2023/05/23 05:23:17;;;;;;;;;;;12.00;99.90;;;;;;5054983;28;19928;-70
2023/05/23 05:25:42;;;;;;;;;;;12.00;99.90;;;;;;5049671;28;20281;-67
2023/05/23 05:28:08;;;;;;;;;;;12.00;99.90;;;;;;5067028;28;20083;-67
2023/05/23 05:30:37;;;;;;;;;;;12.00;99.90;;;;;;5068946;28;19917;-68
2023/05/23 05:33:03;;;;;;;;;;;12.00;99.90;;;;;;5050098;28;19939;-67
2023/05/23 05:35:30;;;;;;;;;;;12.00;99.90;;;;;;5069141;28;19923;-67
2023/05/23 05:37:55;;;;;;;;;;;12.00;99.90;;;;;;5055847;28;19927;-70
2023/05/23 05:40:21;;;;;;;;;;;12.00;99.90;;;;;;5048332;28;20386;-71
2023/05/23 05:42:46;;;;;;;;;;;12.10;99.90;;;;;;5049561;28;19920;-68
2023/05/23 05:45:12;;;;;;;;;;;12.10;99.90;;;;;;5051943;28;20092;-69
2023/05/23 05:47:37;;;;;;;;;;;12.00;99.90;;;;;;5047280;28;19939;-69
2023/05/23 05:50:04;;;;;;;;;;;12.10;99.90;;;;;;5066729;28;19916;-71
2023/05/23 05:52:29;;;;;;;;;;;12.00;99.90;;;;;;5052083;28;19927;-74
2023/05/23 05:54:56;;;;;;;;;;;12.00;99.90;;;;;;5050235;28;19920;-73
2023/05/23 05:57:22;;;;;;;;;;;12.00;99.90;;;;;;5043277;28;19920;-76
2023/05/23 05:59:47;;;;;;;;;;;12.00;99.90;;;;;;5050054;28;19929;-70
2023/05/23 06:02:13;;;;;;;;;;;12.00;99.90;;;;;;5032430;28;19917;-73
2023/05/23 06:04:38;;;;;;;;;;;12.00;99.90;;;;;;5053842;28;19916;-70
2023/05/23 06:07:04;;;;;;;;;;;11.90;99.90;;;;;;5062587;28;19916;-74
2023/05/23 06:09:29;;;;;;;;;;;11.90;99.90;;;;;;5055222;28;19939;-73
2023/05/23 06:11:55;;;;;;;;;;;11.90;99.90;;;;;;5048592;28;20338;-75
2023/05/23 06:14:20;;;;;;;;;;;11.80;99.90;;;;;;5048210;28;20267;-76
2023/05/23 06:16:46;;;;;;;;;;;11.80;99.90;;;;;;5052731;28;19966;-75
2023/05/23 06:19:11;;;;;;;;;;;11.90;99.90;;;;;;5055404;28;19920;-70
2023/05/23 06:21:37;;;;;;;;;;;11.90;99.90;;;;;;5061952;28;19923;-70
2023/05/23 06:24:02;;;;;;;;;;;11.90;99.90;;;;;;5050750;28;19917;-69
2023/05/23 06:26:28;;;;;;;;;;;12.00;99.90;;;;;;5054121;28;19920;-68
2023/05/23 06:28:53;;;;;;;;;;;12.00;99.90;;;;;;5034890;28;19995;-69
2023/05/23 06:31:19;;;;;;;;;;;12.10;99.90;;;;;;5067177;28;19917;-69
2023/05/23 06:33:45;;;;;;;;;;;12.20;99.90;;;;;;5067004;28;19922;-69
2023/05/23 06:36:10;;;;;;;;;;;12.20;99.90;;;;;;5032684;28;19928;-72
2023/05/23 06:38:36;;;;;;;;;;;12.20;99.90;;;;;;5065093;28;20003;-69
2023/05/23 06:41:02;;;;;;;;;;;12.30;99.90;;;;;;5054474;28;19920;-69
2023/05/23 06:43:28;;;;;;;;;;;12.40;99.90;;;;;;5072975;28;20025;-69
2023/05/23 06:46:24;;;;;;;;;;;12.40;99.90;;;;;;5117821;22;19947;-91
2023/05/23 06:48:52;;;;;;;;;;;12.40;99.90;;;;;;5090226;28;19982;-92
2023/05/23 06:51:27;;;;;;;;;;;12.40;99.90;;;;;;5089003;28;19920;-91
2023/05/23 06:53:55;;;;;;;;;;;12.40;99.90;;;;;;5086260;28;20310;-92
2023/05/23 06:56:24;;;;;;;;;;;12.50;99.90;;;;;;5090523;28;19916;-93
2023/05/23 06:58:50;;;;;;;;;;;12.50;99.90;;;;;;5088171;28;19995;-92
2023/05/23 07:01:21;;;;;;;;;;;12.50;99.90;;;;;;5100128;28;19916;-93
2023/05/23 07:03:49;;;;;;;;;;;12.60;99.90;;;;;;5087602;28;19916;-94
2023/05/23 07:06:18;;;;;;;;;;;12.60;99.90;;;;;;5087594;28;20712;-92
2023/05/23 07:08:47;;;;;;;;;;;12.60;99.90;;;;;;5089781;28;19916;-92
2023/05/23 07:11:13;;;;;;;;;;;12.50;99.90;;;;;;5080886;28;19979;-91
2023/05/23 07:13:42;;;;;;;;;;;12.50;99.90;;;;;;5098922;28;19922;-93
2023/05/23 07:16:07;;;;;;;;;;;12.50;99.90;;;;;;5098081;23;20449;-69
2023/05/23 07:18:33;;;;;;;;;;;12.50;99.90;;;;;;5060444;28;20003;-69
2023/05/23 07:20:58;;;;;;;;;;;12.50;99.90;;;;;;5047930;28;19920;-70
2023/05/23 07:23:24;;;;;;;;;;;12.50;99.90;;;;;;5056403;28;20427;-69
2023/05/23 07:25:49;;;;;;;;;;;12.50;99.90;;;;;;5065585;28;19920;-69
2023/05/23 07:28:15;;;;;;;;;;;12.50;99.90;;;;;;5068687;28;20208;-69
2023/05/23 07:30:41;;;;;;;;;;;12.50;99.90;;;;;;5062065;28;19924;-69
2023/05/23 07:33:07;;;;;;;;;;;12.50;99.90;;;;;;5064060;28;20344;-69
2023/05/23 07:35:32;;;;;;;;;;;12.50;99.90;;;;;;5064960;28;20348;-69
2023/05/23 07:37:58;;;;;;;;;;;12.60;99.90;;;;;;5059224;28;19917;-69
2023/05/23 07:40:23;;;;;;;;;;;12.60;99.90;;;;;;5060974;28;20441;-69
2023/05/23 07:42:49;;;;;;;;;;;12.60;99.90;;;;;;5067050;28;20099;-69
2023/05/23 07:45:14;;;;;;;;;;;12.60;99.90;;;;;;5047548;28;19928;-69
2023/05/23 07:47:40;;;;;;;;;;;12.60;99.90;;;;;;5058714;28;19943;-69
2023/05/23 07:50:06;;;;;;;;;;;12.70;99.90;;;;;;5062643;28;19924;-69
2023/05/23 07:52:31;;;;;;;;;;;12.70;99.90;;;;;;5061891;28;19916;-69
2023/05/23 07:54:57;;;;;;;;;;;12.70;99.90;;;;;;5065146;28;19924;-69
2023/05/23 07:57:23;;;;;;;;;;;12.90;99.90;;;;;;5057535;28;19916;-69
2023/05/23 07:59:49;;;;;;;;;;;13.00;99.90;;;;;;5062299;28;19927;-69
2023/05/23 08:02:14;;;;;;;;;;;13.20;99.90;;;;;;5061984;28;19961;-69
2023/05/23 08:04:40;;;;;;;;;;;13.20;99.90;;;;;;5064387;28;20011;-69
2023/05/23 08:07:07;;;;;;;;;;;13.30;99.90;;;;;;5064146;28;20411;-69
2023/05/23 08:09:32;;;;;;;;;;;13.40;99.90;;;;;;5066826;28;20320;-69
2023/05/23 08:11:58;;;;;;;;;;;13.40;99.90;;;;;;5058304;28;19927;-69
2023/05/23 08:14:23;;;;;;;;;;;13.50;99.90;;;;;;5058148;28;20005;-69
2023/05/23 08:16:49;;;;;;;;;;;13.40;99.90;;;;;;5057008;28;20366;-69
2023/05/23 08:19:15;;;;;;;;;;;13.40;99.90;;;;;;5047420;28;19927;-69
2023/05/23 08:21:41;;;;;;;;;;;13.40;99.90;;;;;;5057725;28;19978;-69
2023/05/23 08:24:06;;;;;;;;;;;13.50;99.90;;;;;;5060952;28;20324;-69
2023/05/23 08:26:36;;;;;;;;;;;13.50;99.90;;;;;;5055141;28;19921;-69
2023/05/23 08:29:02;;;;;;;;;;;13.50;99.90;;;;;;5051826;28;20629;-69
2023/05/23 08:31:28;;;;;;;;;;;13.50;99.90;;;;;;5064643;28;20332;-70
2023/05/23 08:33:54;;;;;;;;;;;13.50;99.90;;;;;;5059139;28;19920;-69
2023/05/23 08:36:19;;;;;;;;;;;13.50;99.90;;;;;;5073537;28;19916;-69
2023/05/23 08:38:45;;;;;;;;;;;13.40;99.90;;;;;;5066641;28;20045;-70
2023/05/23 08:41:20;;;;;;;;;;;13.50;99.90;;;;;;5067572;28;19920;-69
2023/05/23 08:43:46;;;;;;;;;;;13.50;99.90;;;;;;5058966;28;19947;-69
2023/05/23 08:46:12;;;;;;;;;;;13.50;99.90;;;;;;5045912;28;19928;-70
2023/05/23 08:48:38;;;;;;;;;;;13.70;99.90;;;;;;5069803;28;19924;-69
2023/05/23 08:51:04;;;;;;;;;;;13.90;99.90;;;;;;5063267;28;19971;-70
2023/05/23 08:53:30;;;;;;;;;;;14.10;99.90;;;;;;5059909;28;19975;-70
2023/05/23 08:56:01;;;;;;;;;;;14.20;99.90;;;;;;5066205;28;19923;-69
2023/05/23 08:58:30;;;;;;;;;;;14.30;99.90;;;;;;5067138;28;20264;-69
2023/05/23 09:00:58;;;;;;;;;;;14.40;99.90;;;;;;5056288;28;19917;-69
2023/05/23 09:03:27;;;;;;;;;;;14.40;99.90;;;;;;5067158;28;19916;-70
2023/05/23 09:05:53;;;;;;;;;;;14.50;99.90;;;;;;5060388;28;20011;-69
2023/05/23 09:08:19;;;;;;;;;;;14.60;99.90;;;;;;5069404;28;19939;-69
2023/05/23 09:10:44;;;;;;;;;;;14.60;99.90;;;;;;5064206;28;19941;-69
2023/05/23 09:13:10;;;;;;;;;;;14.70;99.90;;;;;;5066790;28;20015;-70
2023/05/23 09:15:36;;;;;;;;;;;14.60;99.90;;;;;;5065401;28;19997;-69
2023/05/23 09:18:02;;;;;;;;;;;14.50;99.90;;;;;;5062678;28;19916;-69
2023/05/23 09:20:27;;;;;;;;;;;14.50;99.90;;;;;;5060905;28;19923;-69
2023/05/23 09:22:53;;;;;;;;;;;14.60;99.90;;;;;;5067277;28;19932;-70
2023/05/23 09:25:19;;;;;;;;;;;14.60;99.90;;;;;;5062281;28;19928;-69
2023/05/23 09:27:45;;;;;;;;;;;14.60;99.90;;;;;;5062753;28;19928;-69
2023/05/23 09:30:11;;;;;;;;;;;14.50;99.90;;;;;;5063688;28;19916;-69
2023/05/23 09:32:37;;;;;;;;;;;14.50;99.90;;;;;;5065203;28;19916;-69
2023/05/23 09:35:04;;;;;;;;;;;14.70;99.90;;;;;;5050683;28;19916;-69
2023/05/23 09:37:36;;;;;;;;;;;14.80;99.90;;;;;;5057376;28;19926;-70
2023/05/23 09:40:20;;;;;;;;;;;14.90;99.90;;;;;;5063060;28;19920;-70
2023/05/23 09:42:46;;;;;;;;;;;15.00;99.90;;;;;;5063081;28;20042;-69
2023/05/23 09:45:12;;;;;;;;;;;15.00;99.90;;;;;;5051736;28;20019;-70
2023/05/23 09:47:38;;;;;;;;;;;15.00;99.90;;;;;;5066149;28;19931;-70
2023/05/23 09:50:04;;;;;;;;;;;15.10;99.90;;;;;;5058260;28;20345;-69
2023/05/23 09:52:37;;;;;;;;;;;15.10;99.90;;;;;;5053793;28;19928;-70
2023/05/23 09:55:03;;;;;;;;;;;15.00;99.90;;;;;;5043976;28;20171;-69
2023/05/23 09:57:28;;;;;;;;;;;14.80;99.90;;;;;;5062837;28;20417;-69
2023/05/23 09:59:57;;;;;;;;;;;14.80;99.90;;;;;;5063608;28;19985;-69
2023/05/23 10:02:43;;;;;;;;;;;14.60;99.90;;;;;;5065313;28;20313;-69
2023/05/23 10:05:10;;;;;;;;;;;14.60;99.90;;;;;;5061870;28;20197;-70
2023/05/23 10:07:36;;;;;;;;;;;14.60;99.90;;;;;;5058103;28;20338;-70
2023/05/23 10:10:03;;;;;;;;;;;14.80;99.90;;;;;;5050753;28;19923;-69
2023/05/23 10:12:38;;;;;;;;;;;15.00;99.90;;;;;;5064531;28;20481;-69
2023/05/23 10:15:04;;;;;;;;;;;15.10;99.90;;;;;;5063576;28;19923;-69
2023/05/23 10:17:33;;;;;;;;;;;15.20;99.90;;;;;;5054662;28;20017;-69
2023/05/23 10:20:13;;;;;;;;;;;15.20;99.90;;;;;;5064213;28;19916;-69
2023/05/23 10:22:39;;;;;;;;;;;15.20;99.90;;;;;;5052657;28;19978;-69
2023/05/23 10:25:07;;;;;;;;;;;15.20;99.90;;;;;;5059406;28;20344;-69
2023/05/23 10:27:32;;;;;;;;;;;15.20;99.90;;;;;;5057941;28;19923;-70
2023/05/23 10:29:58;;;;;;;;;;;15.30;99.90;;;;;;5038048;28;19916;-69
2023/05/23 10:32:25;;;;;;;;;;;15.30;99.90;;;;;;5059567;28;19916;-69
2023/05/23 10:34:50;;;;;;;;;;;15.40;99.90;;;;;;5059654;28;20011;-70
2023/05/23 10:37:25;;;;;;;;;;;15.30;99.90;;;;;;5051746;28;20007;-69
2023/05/23 10:39:50;;;;;;;;;;;15.20;99.90;;;;;;5060569;28;20348;-69
2023/05/23 10:42:29;;;;;;;;;;;15.30;99.90;;;;;;5064271;28;20015;-69
2023/05/23 10:45:12;;;;;;;;;;;15.30;99.90;;;;;;5056384;28;19917;-69
2023/05/23 10:47:38;;;;;;;;;;;15.30;99.90;;;;;;5059623;28;19927;-69
2023/05/23 10:50:04;;;;;;;;;;;15.30;99.90;;;;;;5043371;28;19965;-69
2023/05/23 10:52:37;;;;;;;;;;;15.30;99.90;;;;;;5061112;28;19920;-69
2023/05/23 10:55:11;;;;;;;;;;;15.30;99.90;;;;;;5060999;28;20378;-69
2023/05/23 10:57:37;;;;;;;;;;;15.30;99.90;;;;;;5049779;28;19924;-69
2023/05/23 11:00:03;;;;;;;;;;;15.30;99.90;;;;;;5059235;28;20301;-69
2023/05/23 11:02:29;;;;;;;;;;;15.40;99.90;;;;;;5057838;28;19916;-69
2023/05/23 11:05:13;;;;;;;;;;;15.50;99.90;;;;;;5061862;28;19921;-70
2023/05/23 11:07:39;;;;;;;;;;;15.60;99.90;;;;;;5052941;28;20146;-69
2023/05/23 11:10:12;;;;;;;;;;;15.50;99.90;;;;;;5063762;28;19931;-69
2023/05/23 11:12:42;;;;;;;;;;;15.50;99.90;;;;;;5063462;28;19923;-69
2023/05/23 11:15:16;;;;;;;;;;;15.50;99.90;;;;;;5062472;28;19939;-69
2023/05/23 11:17:52;;;;;;;;;;;15.60;99.90;;;;;;5055761;28;19924;-69
2023/05/23 11:20:22;;;;;;;;;;;15.60;99.90;;;;;;5055956;28;19917;-69
2023/05/23 11:22:57;;;;;;;;;;;15.50;99.90;;;;;;5059162;28;20361;-69
2023/05/23 11:25:39;;;;;;;;;;;15.40;99.90;;;;;;5065130;28;20393;-69
2023/05/23 11:28:05;;;;;;;;;;;15.30;99.90;;;;;;5057605;28;20154;-69
2023/05/23 11:30:31;;;;;;;;;;;15.20;99.90;;;;;;5065371;28;19921;-69
2023/05/23 11:32:56;;;;;;;;;;;15.10;99.90;;;;;;5054013;28;20163;-70
2023/05/23 11:35:22;;;;;;;;;;;15.10;99.90;;;;;;5062864;28;19916;-70
2023/05/23 11:37:47;;;;;;;;;;;15.10;99.90;;;;;;5059513;28;19927;-69
2023/05/23 11:40:28;;;;;;;;;;;15.20;99.90;;;;;;5057319;28;19928;-69
2023/05/23 11:42:55;;;;;;;;;;;15.10;99.90;;;;;;5060593;28;20014;-69
2023/05/23 11:45:24;;;;;;;;;;;15.10;99.90;;;;;;5059928;28;19916;-70
2023/05/23 11:47:49;;;;;;;;;;;15.10;99.90;;;;;;5057859;28;20011;-69
2023/05/23 11:50:15;;;;;;;;;;;15.20;99.90;;;;;;5066183;28;20011;-70
2023/05/23 11:52:41;;;;;;;;;;;15.20;99.90;;;;;;5060784;28;20365;-69
2023/05/23 11:55:07;;;;;;;;;;;15.20;99.90;;;;;;5063018;28;20003;-69
2023/05/23 11:57:32;;;;;;;;;;;15.30;99.90;;;;;;5060696;28;20151;-69
2023/05/23 11:59:58;;;;;;;;;;;15.40;99.90;;;;;;5065280;28;19960;-69
2023/05/23 12:02:26;;;;;;;;;;;15.50;99.90;;;;;;5065317;28;19944;-69
2023/05/23 12:04:52;;;;;;;;;;;15.60;99.90;;;;;;5060006;28;20468;-70
2023/05/23 12:07:20;;;;;;;;;;;15.50;99.90;;;;;;5047008;28;19921;-69
2023/05/23 12:09:46;;;;;;;;;;;15.50;99.90;;;;;;5058919;28;19917;-69
2023/05/23 12:12:12;;;;;;;;;;;15.50;99.90;;;;;;5064552;28;19927;-69
2023/05/23 12:14:43;;;;;;;;;;;15.50;99.90;;;;;;5061901;28;19920;-70
2023/05/23 12:17:10;;;;;;;;;;;15.50;99.90;;;;;;5058053;28;20164;-69
2023/05/23 12:19:36;;;;;;;;;;;15.60;99.90;;;;;;5064387;28;19948;-70
2023/05/23 12:22:08;;;;;;;;;;;15.60;99.90;;;;;;5062768;28;19959;-69
2023/05/23 12:24:34;;;;;;;;;;;15.50;99.90;;;;;;5064170;28;20329;-69
2023/05/23 12:27:00;;;;;;;;;;;15.50;99.90;;;;;;5059017;28;19943;-69
2023/05/23 12:29:33;;;;;;;;;;;15.60;99.90;;;;;;5061565;28;19924;-69
2023/05/23 12:32:00;;;;;;;;;;;15.60;99.90;;;;;;5062020;28;20396;-69
2023/05/23 12:34:25;;;;;;;;;;;15.70;99.90;;;;;;5062743;28;19956;-69
2023/05/23 12:36:54;;;;;;;;;;;15.80;99.90;;;;;;5065505;28;19962;-69
2023/05/23 12:39:25;;;;;;;;;;;15.80;99.90;;;;;;5058110;28;20269;-70
2023/05/23 12:41:51;;;;;;;;;;;15.80;99.90;;;;;;5062672;28;20250;-69
2023/05/23 12:44:17;;;;;;;;;;;15.70;99.90;;;;;;5056952;28;19927;-69
2023/05/23 12:46:42;;;;;;;;;;;15.90;99.90;;;;;;5085712;22;19984;-69
2023/05/23 12:49:08;;;;;;;;;;;15.90;99.90;;;;;;5061433;28;19931;-69
2023/05/23 12:51:33;;;;;;;;;;;15.90;99.90;;;;;;5057871;28;20011;-69
2023/05/23 12:53:59;;;;;;;;;;;15.80;99.90;;;;;;5060946;28;19916;-70
2023/05/23 12:56:25;;;;;;;;;;;15.70;99.90;;;;;;5065347;28;19916;-71
2023/05/23 12:58:52;;;;;;;;;;;15.90;99.90;;;;;;5069221;28;22129;-69
2023/05/23 13:01:18;;;;;;;;;;;16.10;99.90;;;;;;5071542;28;19923;-70
2023/05/23 13:03:44;;;;;;;;;;;16.20;99.90;;;;;;5072635;28;19995;-70
2023/05/23 13:06:10;;;;;;;;;;;16.50;99.90;;;;;;5053897;28;20031;-70
2023/05/23 13:08:35;;;;;;;;;;;16.60;99.90;;;;;;5077760;28;19921;-70
2023/05/23 13:11:01;;;;;;;;;;;16.70;99.90;;;;;;5053897;28;20330;-71
2023/05/23 13:13:27;;;;;;;;;;;16.90;99.90;;;;;;5062374;28;19994;-72
2023/05/23 13:15:53;;;;;;;;;;;17.00;99.60;;;;;;5076021;28;19924;-72
2023/05/23 13:18:18;;;;;;;;;;;17.10;99.90;;;;;;5053148;28;20357;-70
2023/05/23 13:20:45;;;;;;;;;;;17.10;98.50;;;;;;5071051;28;20014;-69
2023/05/23 13:23:10;;;;;;;;;;;17.00;96.50;;;;;;5062572;28;20293;-69
2023/05/23 13:25:36;;;;;;;;;;;16.80;99.90;;;;;;5079417;28;19916;-70
2023/05/23 13:28:01;;;;;;;;;;;16.80;99.90;;;;;;5044450;28;19986;-70
2023/05/23 13:30:27;;;;;;;;;;;16.80;98.70;;;;;;5064806;28;19922;-70
2023/05/23 13:32:54;;;;;;;;;;;16.60;98.50;;;;;;5060149;28;21535;-70
2023/05/23 13:35:19;;;;;;;;;;;16.40;99.20;;;;;;5063111;28;19938;-70
2023/05/23 13:37:45;;;;;;;;;;;16.40;99.90;;;;;;5077835;28;19932;-70
2023/05/23 13:40:12;;;;;;;;;;;16.50;99.90;;;;;;5088653;28;19916;-70
2023/05/23 13:42:37;;;;;;;;;;;16.60;99.90;;;;;;5065683;28;19952;-70
2023/05/23 13:45:03;;;;;;;;;;;16.50;99.90;;;;;;5079614;28;20017;-70
2023/05/23 13:47:29;;;;;;;;;;;16.50;97.40;;;;;;5065931;28;20349;-70
2023/05/23 13:49:55;;;;;;;;;;;16.60;97.60;;;;;;5083898;28;20076;-70
2023/05/23 13:52:21;;;;;;;;;;;16.60;95.10;;;;;;5058427;28;20019;-70
2023/05/23 13:54:46;;;;;;;;;;;16.50;97.10;;;;;;5062596;28;20006;-70
2023/05/23 13:57:12;;;;;;;;;;;16.40;92.90;;;;;;5077299;28;19916;-70
2023/05/23 13:59:37;;;;;;;;;;;16.30;93.10;;;;;;5066704;28;19916;-70
2023/05/23 14:02:03;;;;;;;;;;;16.40;94.30;;;;;;5059425;28;20326;-70
2023/05/23 14:04:28;;;;;;;;;;;16.60;94.90;;;;;;5063793;28;19916;-70
2023/05/23 14:06:54;;;;;;;;;;;16.80;98.30;;;;;;5084381;28;20231;-70
2023/05/23 14:09:19;;;;;;;;;;;16.90;96.00;;;;;;5077888;28;20227;-70
2023/05/23 14:11:45;;;;;;;;;;;17.00;96.30;;;;;;5077808;28;19961;-70
2023/05/23 14:14:10;;;;;;;;;;;17.10;96.40;;;;;;5051900;28;19972;-70